createdAt,value
2022-10-14T00:04:26.091Z,100511.20
2022-10-14T00:09:29.327Z,100509.54
2022-10-14T00:14:32.574Z,100513.20
2022-10-14T00:19:36.676Z,100512.30
2022-10-14T00:24:40.270Z,100514.12
2022-10-14T00:29:43.549Z,100510.84
2022-10-14T00:34:46.804Z,100507.58
2022-10-14T00:39:53.480Z,100512.07
2022-10-14T00:45:14.311Z,100510.86
2022-10-14T00:50:20.082Z,100502.19
2022-10-14T00:55:23.627Z,100499.61
2022-10-14T01:00:27.213Z,100498.33
2022-10-14T01:05:34.104Z,100492.88
2022-10-14T01:10:43.505Z,100487.20
2022-10-14T01:16:09.900Z,100480.87
2022-10-14T01:21:21.253Z,100477.58
2022-10-14T01:26:56.341Z,100470.58
2022-10-14T01:32:07.568Z,100461.95
2022-10-14T01:37:15.846Z,100463.69
2022-10-14T01:42:23.935Z,100470.07
2022-10-14T01:47:30.725Z,100463.74
2022-10-14T01:52:46.708Z,100452.29
2022-10-14T01:57:52.119Z,100460.58
2022-10-14T02:02:55.903Z,100456.63
2022-10-14T02:08:08.811Z,100459.44
2022-10-14T02:13:47.341Z,100463.77
2022-10-14T02:19:09.937Z,100467.42
2022-10-14T02:24:13.087Z,100465.48
2022-10-14T02:29:19.783Z,100468.87
2022-10-14T02:34:24.614Z,100474.66
2022-10-14T02:39:35.915Z,100473.92
2022-10-14T02:44:53.453Z,100465.95
2022-10-14T02:49:56.854Z,100464.05
2022-10-14T02:55:00.710Z,100463.98
2022-10-14T03:00:06.187Z,100460.45
2022-10-14T03:05:10.363Z,100456.15
2022-10-14T03:10:13.742Z,100455.34
2022-10-14T03:15:17.160Z,100453.52
2022-10-14T03:20:20.615Z,100450.05
2022-10-14T03:25:28.329Z,100444.40
2022-10-14T03:30:45.418Z,100432.81
2022-10-14T03:35:52.713Z,100439.90
2022-10-14T03:41:00.748Z,100451.09
2022-10-14T03:46:04.992Z,100448.76
2022-10-14T03:51:09.069Z,100451.83
2022-10-14T03:56:12.824Z,100447.41
2022-10-14T04:01:17.472Z,100439.19
2022-10-14T04:06:39.373Z,100448.27
2022-10-14T04:11:43.168Z,100439.94
2022-10-14T04:16:51.863Z,100442.13
2022-10-14T04:21:55.979Z,100439.13
2022-10-14T04:27:03.996Z,100428.52
2022-10-14T04:32:30.229Z,100430.15
2022-10-14T04:37:33.722Z,100437.03
2022-10-14T04:42:42.736Z,100442.73
2022-10-14T04:47:54.058Z,100438.68
2022-10-14T04:53:02.124Z,100443.44
2022-10-14T04:58:05.418Z,100434.17
2022-10-14T05:03:13.661Z,100426.86
2022-10-14T05:08:23.415Z,100419.88
2022-10-14T05:13:31.071Z,100413.71
2022-10-14T05:18:40.492Z,100419.77
2022-10-14T05:23:51.373Z,100416.06
2022-10-14T05:28:54.970Z,100414.20
2022-10-14T05:33:58.598Z,100409.14
2022-10-14T05:39:02.855Z,100404.31
2022-10-14T05:44:11.753Z,100402.06
2022-10-14T05:49:15.314Z,100395.60
2022-10-14T05:54:19.353Z,100401.43
2022-10-14T05:59:24.039Z,100400.81
2022-10-14T06:04:29.163Z,100402.80
2022-10-14T06:09:39.990Z,100408.67
2022-10-14T06:14:49.653Z,100408.63
2022-10-14T06:20:07.552Z,100411.80
2022-10-14T06:25:11.120Z,100413.26
2022-10-14T06:30:14.829Z,100414.81
2022-10-14T06:35:21.365Z,100421.45
2022-10-14T06:40:24.800Z,100420.77
2022-10-14T06:45:28.047Z,100416.16
2022-10-14T06:50:31.334Z,100413.00
2022-10-14T06:55:35.107Z,100411.17
2022-10-14T07:00:43.239Z,100411.09
2022-10-14T07:05:51.950Z,100414.02
2022-10-14T07:10:58.145Z,100419.77
2022-10-14T07:16:07.505Z,100417.09
2022-10-14T07:21:10.876Z,100412.89
2022-10-14T07:26:17.245Z,100409.59
2022-10-14T07:31:26.590Z,100410.05
2022-10-14T07:36:32.724Z,100415.93
2022-10-14T07:41:38.223Z,100425.62
2022-10-14T07:46:44.864Z,100419.94
2022-10-14T07:51:49.356Z,100421.05
2022-10-14T07:56:53.886Z,100421.42
2022-10-14T08:01:57.611Z,100419.62
2022-10-14T08:07:01.581Z,100422.77
2022-10-14T08:12:06.260Z,100417.77
2022-10-14T08:17:10.209Z,100416.67
2022-10-14T08:22:16.932Z,100416.05
2022-10-14T08:27:20.151Z,100419.53
2022-10-14T08:32:24.857Z,100422.20
2022-10-14T08:37:29.687Z,100421.63
2022-10-14T08:42:46.340Z,100414.42
2022-10-14T08:47:54.070Z,100415.23
2022-10-14T08:53:09.974Z,100404.69
2022-10-14T08:58:19.724Z,100405.27
2022-10-14T09:03:35.231Z,100404.68
2022-10-14T09:08:45.160Z,100403.59
2022-10-14T09:13:56.710Z,100404.21
2022-10-14T09:19:02.794Z,100402.57
2022-10-14T09:24:21.653Z,100401.53
2022-10-14T09:29:28.987Z,100403.64
2022-10-14T09:34:38.875Z,100405.03
2022-10-14T09:39:46.007Z,100404.91
2022-10-14T09:45:13.563Z,100396.85
2022-10-14T09:50:52.203Z,100389.60
2022-10-14T09:55:58.831Z,100388.02
2022-10-14T10:01:06.368Z,100385.23
2022-10-14T10:06:15.216Z,100388.92
2022-10-14T10:11:39.978Z,100389.63
2022-10-14T10:16:43.286Z,100381.85
2022-10-14T10:21:48.794Z,100372.02
2022-10-14T10:26:52.477Z,100365.77
2022-10-14T10:32:06.880Z,100361.92
2022-10-14T10:43:43.489Z,100351.66
2022-10-14T10:49:08.814Z,100353.52
2022-10-14T10:54:27.331Z,100350.88
2022-10-14T10:59:59.810Z,100345.36
2022-10-14T11:05:23.719Z,100339.41
2022-10-14T11:11:08.366Z,100334.26
2022-10-14T11:16:30.001Z,100328.44
2022-10-14T11:21:44.749Z,100324.36
2022-10-14T11:27:09.427Z,100324.65
2022-10-14T11:32:33.983Z,100325.73
2022-10-14T11:37:58.606Z,100316.21
2022-10-14T11:43:13.933Z,100314.20
2022-10-14T11:48:50.867Z,100312.62
2022-10-14T11:54:08.585Z,100309.55
2022-10-14T11:59:40.629Z,100303.68
2022-10-14T12:04:48.373Z,100293.48
2022-10-14T12:09:59.080Z,100284.97
2022-10-14T12:15:08.056Z,100284.75
2022-10-14T12:20:49.637Z,100287.35
2022-10-14T12:26:20.053Z,100281.12
2022-10-14T12:31:28.150Z,100279.70
2022-10-14T12:36:32.368Z,100277.30
2022-10-14T12:41:41.308Z,100273.13
2022-10-14T12:46:49.984Z,100267.04
2022-10-14T12:51:55.644Z,100265.91
2022-10-14T12:57:26.277Z,100260.03
2022-10-14T13:02:48.810Z,100256.05
2022-10-14T13:08:17.247Z,100254.05
2022-10-14T13:13:38.695Z,100249.69
2022-10-14T13:18:44.982Z,100243.51
2022-10-14T13:23:50.512Z,100240.13
2022-10-14T13:29:03.066Z,100239.13
2022-10-14T13:34:44.106Z,100228.92
2022-10-14T13:39:47.474Z,100230.15
2022-10-14T13:45:01.867Z,100224.80
2022-10-14T13:50:05.783Z,100226.08
2022-10-14T13:55:21.290Z,100223.58
2022-10-14T14:00:42.049Z,100226.74
2022-10-14T14:05:47.911Z,100226.75
2022-10-14T14:11:15.691Z,100226.64
2022-10-14T14:16:22.952Z,100227.95
2022-10-14T14:21:27.931Z,100228.34
2022-10-14T14:26:38.866Z,100226.31
2022-10-14T14:37:34.290Z,100226.23
2022-10-14T14:42:37.322Z,100232.06
2022-10-14T14:47:42.182Z,100233.65
2022-10-14T14:52:48.200Z,100239.91
2022-10-14T14:57:59.529Z,100238.77
2022-10-14T15:03:04.042Z,100232.21
2022-10-14T15:08:25.746Z,100233.55
2022-10-14T15:13:43.634Z,100234.40
2022-10-14T15:19:02.377Z,100231.36
2022-10-14T15:24:16.379Z,100234.33
2022-10-14T15:29:28.087Z,100225.34
2022-10-14T15:34:31.701Z,100220.39
2022-10-14T15:39:35.614Z,100219.05
2022-10-14T15:44:39.083Z,100211.52
2022-10-14T15:49:46.688Z,100213.11
2022-10-14T15:54:53.873Z,100205.42
2022-10-14T15:59:59.353Z,100210.08
2022-10-14T16:05:19.414Z,100207.33
2022-10-14T16:10:34.815Z,100207.27
2022-10-14T16:15:56.302Z,100212.02
2022-10-14T16:21:03.052Z,100211.41
2022-10-14T16:26:09.191Z,100218.12
2022-10-14T16:31:14.750Z,100213.55
2022-10-14T16:36:32.116Z,100212.91
2022-10-14T16:41:36.730Z,100211.21
2022-10-14T16:47:24.381Z,100212.14
2022-10-14T16:53:02.252Z,100212.42
2022-10-14T16:58:25.392Z,100213.04
2022-10-14T17:03:31.819Z,100211.94
2022-10-14T17:08:41.386Z,100211.05
2022-10-14T17:13:54.072Z,100215.08
2022-10-14T17:19:00.953Z,100213.75
2022-10-14T17:24:05.407Z,100210.52
2022-10-14T17:29:15.634Z,100206.71
2022-10-14T17:34:35.090Z,100201.92
2022-10-14T17:39:42.292Z,100198.80
2022-10-14T17:44:46.625Z,100199.70
2022-10-14T17:49:51.028Z,100201.51
2022-10-14T17:55:01.429Z,100196.42
2022-10-14T18:00:17.752Z,100190.89
2022-10-14T18:05:21.119Z,100182.62
2022-10-14T18:10:26.597Z,100179.19
2022-10-14T18:15:31.496Z,100180.71
2022-10-14T18:20:41.483Z,100181.95
2022-10-14T18:25:45.801Z,100189.14
2022-10-14T18:30:49.234Z,100192.82
2022-10-14T18:36:01.330Z,100186.95
2022-10-14T18:41:10.746Z,100189.55
2022-10-14T18:46:21.827Z,100186.55
2022-10-14T18:51:28.469Z,100187.03
2022-10-14T18:56:37.604Z,100189.23
2022-10-14T19:01:44.363Z,100198.64
2022-10-14T19:06:50.762Z,100200.43
2022-10-14T19:12:03.420Z,100201.96
2022-10-14T19:17:09.960Z,100207.23
2022-10-14T19:22:17.858Z,100208.73
2022-10-14T19:27:21.962Z,100198.48
2022-10-14T19:32:27.252Z,100187.86
2022-10-14T19:37:45.572Z,100190.14
2022-10-14T19:42:49.921Z,100183.82
2022-10-14T19:47:56.972Z,100174.73
2022-10-14T19:53:07.174Z,100171.81
2022-10-14T19:58:27.995Z,100174.34
2022-10-14T20:03:51.718Z,100174.63
2022-10-14T20:09:08.328Z,100171.96
2022-10-14T20:14:16.530Z,100168.11
2022-10-14T20:19:22.160Z,100165.39
2022-10-14T20:24:26.299Z,100167.61
2022-10-14T20:29:36.138Z,100165.63
2022-10-14T20:34:42.212Z,100164.94
2022-10-14T20:39:49.977Z,100163.57
2022-10-14T20:44:54.238Z,100164.84
2022-10-14T20:50:01.300Z,100164.80
2022-10-14T20:55:07.696Z,100162.98
2022-10-14T21:00:21.862Z,100157.45
2022-10-14T21:05:31.558Z,100157.29
2022-10-14T21:10:40.939Z,100156.79
2022-10-14T21:15:56.031Z,100153.59
2022-10-14T21:21:05.398Z,100155.27
2022-10-14T21:26:14.096Z,100150.08
2022-10-14T21:31:21.125Z,100147.58
2022-10-14T21:36:25.514Z,100143.09
2022-10-14T21:41:30.828Z,100137.20
2022-10-14T21:46:45.180Z,100129.90
2022-10-14T21:52:00.465Z,100124.13
2022-10-14T21:57:15.407Z,100114.73
2022-10-14T22:02:19.505Z,100110.45
2022-10-14T22:07:25.574Z,100109.45
2022-10-14T22:12:31.537Z,100107.98
2022-10-14T22:17:36.731Z,100105.64
2022-10-14T22:22:47.172Z,100109.45
2022-10-14T22:27:55.631Z,100106.91
2022-10-14T22:33:03.225Z,100102.73
2022-10-14T22:38:35.772Z,100087.88
2022-10-14T22:43:54.296Z,100079.15
2022-10-14T22:49:04.191Z,100079.05
2022-10-14T22:54:18.066Z,100076.09
2022-10-14T22:59:25.933Z,100076.60
2022-10-14T23:04:32.533Z,100076.02
2022-10-14T23:09:36.573Z,100084.11
2022-10-14T23:14:40.482Z,100080.69
2022-10-14T23:19:44.295Z,100080.23
2022-10-14T23:24:48.171Z,100074.46
2022-10-14T23:29:53.285Z,100067.45
2022-10-14T23:34:57.414Z,100065.32
2022-10-14T23:40:02.013Z,100054.47
2022-10-14T23:45:06.023Z,100047.73
2022-10-14T23:50:09.394Z,100041.56
2022-10-14T23:55:13.476Z,100043.95
